Arlington, Massachusetts
Current Conditions -  °F | °C
As of 7:56 PM on Sunday 23 Nov 2014 (Local Time) from KBED Reporting Station
Overcast Overcast  
Wind Chill: 50°   Ceiling: 11000
Heat Index: 50°   Visibility: 10mi
Dew Point: 35°   Wind: 6mph
Humidity: 57%   Direction: 160°SSE
Pressure: 30.11"   Gusts: NA
Location:  42.42°N, 71.16°W
Report Text: KBED 240056Z 16005KT 10SM OVC110 10/02 A3011 RMK AO2 SLP209 T01000017
Loading
Personal Weather Stations






























Interactive Weather Map New forecast layout! Learn more

10-Day Weather Forecast

Advertisements
Track Severe Weather on mobile